• Join FlightAware (Why Join?)
  • Login
  • US Flag 
11:03AM EDT


 

Airport Tracker/Info


-or-


 

Live Flight TrackerFlight Track Log ✈ N1933M ✈ 08-Aug-2014 ✈ KRMN - KFCI

Flight Track Log - Related Links

Times and Time Zones

All times are in EDT time to prevent confusion due to time zone crossing. See the N1933M flight status page for this flight to view local times or setup timezone preferences in your user account.

Time Position Orientation Groundspeed Altitude Reporting Facility
EDT Latitude Longitude Course Direction KTS MPH feet Rate Location/Type
04:40PM 38.3167 -77.4167 201° Southwest 97 112 3,000  Level Potomac TRACON
04:41PM 38.3000 -77.4167 180° South 95 109 3,800 360 Climbing Potomac TRACON
04:42PM 38.2667 -77.4167 180° South 122 140 3,800  Level Potomac TRACON
04:43PM 38.2333 -77.4167 180° South 132 152 3,800  Level Potomac TRACON
04:44PM 38.2000 -77.4167 180° South 127 146 3,800  Level Potomac TRACON
04:45PM 38.1667 -77.4333 201° Southwest 125 144 3,800  Level Potomac TRACON
04:46PM 38.1333 -77.4333 180° South 122 140 3,800  Level Potomac TRACON
04:47PM 38.1000 -77.4333 180° South 121 139 3,800  Level Potomac TRACON
04:48PM 38.0667 -77.4333 180° South 120 138 3,800  Level Potomac TRACON
04:49PM 38.0333 -77.4500 201° Southwest 123 142 3,800  Level Potomac TRACON
04:50PM 37.9833 -77.4500 180° South 123 142 3,800  Level Potomac TRACON
04:51PM 37.9500 -77.4500 180° South 119 137 3,800  Level Potomac TRACON
04:52PM 37.9167 -77.4500 180° South 119 137 3,800  Level Potomac TRACON
04:53PM 37.8833 -77.4667 202° Southwest 130 150 3,800  Level Potomac TRACON
04:54PM 37.8500 -77.4667 180° South 128 147 3,800  Level Potomac TRACON
04:55PM 37.8167 -77.4667 180° South 120 138 3,800  Level Potomac TRACON
04:56PM 37.7833 -77.4833 202° Southwest 129 148 3,800 -120 Level Potomac TRACON
04:57PM 37.7500 -77.4833 180° South 118 136 3,600 -480 Descending Potomac TRACON
04:58PM 37.7167 -77.4833 180° South 128 147 2,900 -480 Descending Potomac TRACON
04:59PM 37.6833 -77.4833 180° South 136 157 2,600 -240 Descending Potomac TRACON
05:00PM 37.6500 -77.5000 202° Southwest 134 154 2,500 -120 Descending Potomac TRACON